sensor_id;sensor_type;location;lat;lon;timestamp;P1;durP1;ratioP1;P2;durP2;ratioP2
6342;SDS011;3204;42.698;23.298;2023-07-20T00:01:27;2.88;;;2.53;;
6342;SDS011;3204;42.698;23.298;2023-07-20T00:03:53;5.63;;;2.55;;
6342;SDS011;3204;42.698;23.298;2023-07-20T00:06:21;8.05;;;2.58;;
6342;SDS011;3204;42.698;23.298;2023-07-20T00:08:47;5.20;;;2.42;;
6342;SDS011;3204;42.698;23.298;2023-07-20T00:11:13;4.45;;;2.80;;
6342;SDS011;3204;42.698;23.298;2023-07-20T00:13:39;6.22;;;2.55;;
6342;SDS011;3204;42.698;23.298;2023-07-20T00:16:04;3.97;;;3.13;;
6342;SDS011;3204;42.698;23.298;2023-07-20T00:18:30;7.43;;;2.88;;
6342;SDS011;3204;42.698;23.298;2023-07-20T00:20:56;8.82;;;3.47;;
6342;SDS011;3204;42.698;23.298;2023-07-20T00:23:21;4.55;;;2.88;;
6342;SDS011;3204;42.698;23.298;2023-07-20T00:25:47;6.15;;;3.10;;
6342;SDS011;3204;42.698;23.298;2023-07-20T00:28:13;5.93;;;2.85;;
6342;SDS011;3204;42.698;23.298;2023-07-20T00:30:39;5.18;;;2.85;;
6342;SDS011;3204;42.698;23.298;2023-07-20T00:33:06;9.68;;;3.05;;
6342;SDS011;3204;42.698;23.298;2023-07-20T00:35:35;7.78;;;2.80;;
6342;SDS011;3204;42.698;23.298;2023-07-20T00:38:00;4.35;;;2.80;;
6342;SDS011;3204;42.698;23.298;2023-07-20T00:40:26;4.78;;;2.65;;
6342;SDS011;3204;42.698;23.298;2023-07-20T00:42:51;6.28;;;2.33;;
6342;SDS011;3204;42.698;23.298;2023-07-20T00:45:17;5.38;;;2.63;;
6342;SDS011;3204;42.698;23.298;2023-07-20T00:47:42;2.97;;;2.70;;
6342;SDS011;3204;42.698;23.298;2023-07-20T00:50:09;3.80;;;3.08;;
6342;SDS011;3204;42.698;23.298;2023-07-20T00:52:35;3.38;;;2.30;;
6342;SDS011;3204;42.698;23.298;2023-07-20T00:55:05;7.13;;;2.60;;
6342;SDS011;3204;42.698;23.298;2023-07-20T00:57:32;6.10;;;2.83;;
6342;SDS011;3204;42.698;23.298;2023-07-20T00:59:57;6.78;;;3.00;;
6342;SDS011;3204;42.698;23.298;2023-07-20T01:02:23;8.18;;;3.15;;
6342;SDS011;3204;42.698;23.298;2023-07-20T01:04:49;2.90;;;2.60;;
6342;SDS011;3204;42.698;23.298;2023-07-20T01:07:35;9.50;;;3.17;;
6342;SDS011;3204;42.698;23.298;2023-07-20T01:10:21;3.65;;;2.83;;
6342;SDS011;3204;42.698;23.298;2023-07-20T01:12:51;4.90;;;2.67;;
6342;SDS011;3204;42.698;23.298;2023-07-20T01:15:17;4.25;;;2.80;;
6342;SDS011;3204;42.698;23.298;2023-07-20T01:17:43;4.80;;;3.30;;
6342;SDS011;3204;42.698;23.298;2023-07-20T01:20:10;9.07;;;3.33;;
6342;SDS011;3204;42.698;23.298;2023-07-20T01:31:36;6.38;;;3.30;;
6342;SDS011;3204;42.698;23.298;2023-07-20T01:34:03;6.05;;;2.90;;
6342;SDS011;3204;42.698;23.298;2023-07-20T01:36:36;4.60;;;3.00;;
6342;SDS011;3204;42.698;23.298;2023-07-20T01:39:03;4.97;;;3.33;;
6342;SDS011;3204;42.698;23.298;2023-07-20T01:41:29;4.47;;;2.70;;
6342;SDS011;3204;42.698;23.298;2023-07-20T01:43:58;3.88;;;2.72;;
6342;SDS011;3204;42.698;23.298;2023-07-20T01:46:27;5.00;;;3.17;;
6342;SDS011;3204;42.698;23.298;2023-07-20T01:48:52;8.35;;;3.13;;
6342;SDS011;3204;42.698;23.298;2023-07-20T01:51:19;6.25;;;3.10;;
6342;SDS011;3204;42.698;23.298;2023-07-20T01:53:44;5.32;;;3.03;;
6342;SDS011;3204;42.698;23.298;2023-07-20T01:56:10;5.07;;;2.58;;
6342;SDS011;3204;42.698;23.298;2023-07-20T01:58:37;8.98;;;2.78;;
6342;SDS011;3204;42.698;23.298;2023-07-20T02:01:03;8.65;;;2.78;;
6342;SDS011;3204;42.698;23.298;2023-07-20T02:03:28;3.28;;;2.80;;
6342;SDS011;3204;42.698;23.298;2023-07-20T02:05:54;8.73;;;3.28;;
6342;SDS011;3204;42.698;23.298;2023-07-20T02:08:20;5.80;;;2.75;;
6342;SDS011;3204;42.698;23.298;2023-07-20T02:10:48;9.90;;;2.60;;
6342;SDS011;3204;42.698;23.298;2023-07-20T02:13:14;5.70;;;3.15;;
6342;SDS011;3204;42.698;23.298;2023-07-20T02:15:39;3.47;;;2.60;;
6342;SDS011;3204;42.698;23.298;2023-07-20T02:18:05;9.32;;;3.60;;
6342;SDS011;3204;42.698;23.298;2023-07-20T02:20:31;5.85;;;3.25;;
6342;SDS011;3204;42.698;23.298;2023-07-20T02:22:56;6.00;;;2.58;;
6342;SDS011;3204;42.698;23.298;2023-07-20T02:25:22;7.00;;;3.10;;
6342;SDS011;3204;42.698;23.298;2023-07-20T02:27:47;11.13;;;2.80;;
6342;SDS011;3204;42.698;23.298;2023-07-20T02:30:13;10.88;;;3.20;;
6342;SDS011;3204;42.698;23.298;2023-07-20T02:32:38;7.95;;;2.90;;
6342;SDS011;3204;42.698;23.298;2023-07-20T02:35:04;6.45;;;3.15;;
6342;SDS011;3204;42.698;23.298;2023-07-20T02:37:31;7.45;;;3.45;;
6342;SDS011;3204;42.698;23.298;2023-07-20T02:39:56;9.35;;;3.33;;
6342;SDS011;3204;42.698;23.298;2023-07-20T02:42:22;10.32;;;3.33;;
6342;SDS011;3204;42.698;23.298;2023-07-20T02:44:50;12.57;;;3.72;;
6342;SDS011;3204;42.698;23.298;2023-07-20T02:47:16;6.80;;;3.92;;
6342;SDS011;3204;42.698;23.298;2023-07-20T02:49:41;13.05;;;3.67;;
6342;SDS011;3204;42.698;23.298;2023-07-20T02:52:07;11.32;;;3.42;;
6342;SDS011;3204;42.698;23.298;2023-07-20T02:54:32;13.13;;;3.53;;
6342;SDS011;3204;42.698;23.298;2023-07-20T02:56:58;10.60;;;3.38;;
6342;SDS011;3204;42.698;23.298;2023-07-20T02:59:23;10.00;;;3.50;;
6342;SDS011;3204;42.698;23.298;2023-07-20T03:01:49;9.07;;;3.63;;
6342;SDS011;3204;42.698;23.298;2023-07-20T03:04:14;10.52;;;3.30;;
6342;SDS011;3204;42.698;23.298;2023-07-20T03:06:41;11.63;;;3.42;;
6342;SDS011;3204;42.698;23.298;2023-07-20T03:09:06;8.10;;;3.50;;
6342;SDS011;3204;42.698;23.298;2023-07-20T03:11:32;7.38;;;3.65;;
6342;SDS011;3204;42.698;23.298;2023-07-20T03:13:58;3.78;;;3.30;;
6342;SDS011;3204;42.698;23.298;2023-07-20T03:16:24;8.88;;;3.50;;
6342;SDS011;3204;42.698;23.298;2023-07-20T03:18:50;13.32;;;3.88;;
6342;SDS011;3204;42.698;23.298;2023-07-20T03:21:15;7.43;;;3.55;;
6342;SDS011;3204;42.698;23.298;2023-07-20T03:23:41;16.63;;;4.13;;
6342;SDS011;3204;42.698;23.298;2023-07-20T03:26:07;8.73;;;3.92;;
6342;SDS011;3204;42.698;23.298;2023-07-20T03:28:36;12.63;;;3.88;;
6342;SDS011;3204;42.698;23.298;2023-07-20T03:31:02;20.35;;;4.65;;
6342;SDS011;3204;42.698;23.298;2023-07-20T03:33:28;12.65;;;4.32;;
6342;SDS011;3204;42.698;23.298;2023-07-20T03:35:55;11.35;;;3.88;;
6342;SDS011;3204;42.698;23.298;2023-07-20T03:38:21;9.73;;;3.92;;
6342;SDS011;3204;42.698;23.298;2023-07-20T03:43:20;10.70;;;4.38;;
6342;SDS011;3204;42.698;23.298;2023-07-20T03:45:46;13.15;;;3.80;;
6342;SDS011;3204;42.698;23.298;2023-07-20T03:48:13;8.88;;;4.45;;
6342;SDS011;3204;42.698;23.298;2023-07-20T03:50:40;11.85;;;4.57;;
6342;SDS011;3204;42.698;23.298;2023-07-20T03:53:06;6.47;;;3.78;;
6342;SDS011;3204;42.698;23.298;2023-07-20T03:55:31;8.05;;;4.07;;
6342;SDS011;3204;42.698;23.298;2023-07-20T03:57:57;5.78;;;3.78;;
6342;SDS011;3204;42.698;23.298;2023-07-20T04:00:23;12.27;;;4.03;;
6342;SDS011;3204;42.698;23.298;2023-07-20T04:02:49;8.93;;;3.70;;
6342;SDS011;3204;42.698;23.298;2023-07-20T04:05:15;4.88;;;3.95;;
6342;SDS011;3204;42.698;23.298;2023-07-20T04:07:41;8.02;;;4.45;;
6342;SDS011;3204;42.698;23.298;2023-07-20T04:10:06;3.95;;;3.63;;
6342;SDS011;3204;42.698;23.298;2023-07-20T04:12:32;9.13;;;4.35;;
6342;SDS011;3204;42.698;23.298;2023-07-20T04:14:58;9.00;;;3.92;;
6342;SDS011;3204;42.698;23.298;2023-07-20T04:17:23;15.77;;;4.30;;
6342;SDS011;3204;42.698;23.298;2023-07-20T04:19:49;10.52;;;4.68;;
6342;SDS011;3204;42.698;23.298;2023-07-20T04:22:14;9.32;;;4.18;;
6342;SDS011;3204;42.698;23.298;2023-07-20T04:24:41;12.07;;;4.68;;
6342;SDS011;3204;42.698;23.298;2023-07-20T04:27:07;12.40;;;4.68;;
6342;SDS011;3204;42.698;23.298;2023-07-20T04:29:33;10.52;;;4.60;;
6342;SDS011;3204;42.698;23.298;2023-07-20T04:31:58;10.68;;;4.45;;
6342;SDS011;3204;42.698;23.298;2023-07-20T04:34:23;11.10;;;4.30;;
6342;SDS011;3204;42.698;23.298;2023-07-20T04:36:49;10.38;;;5.07;;
6342;SDS011;3204;42.698;23.298;2023-07-20T04:39:14;10.52;;;5.05;;
6342;SDS011;3204;42.698;23.298;2023-07-20T04:41:40;10.45;;;4.72;;
6342;SDS011;3204;42.698;23.298;2023-07-20T04:44:05;6.00;;;4.97;;
6342;SDS011;3204;42.698;23.298;2023-07-20T04:46:30;9.32;;;4.40;;
6342;SDS011;3204;42.698;23.298;2023-07-20T04:48:56;11.30;;;4.50;;
6342;SDS011;3204;42.698;23.298;2023-07-20T04:51:21;10.98;;;5.03;;
6342;SDS011;3204;42.698;23.298;2023-07-20T04:53:47;8.73;;;4.50;;
6342;SDS011;3204;42.698;23.298;2023-07-20T04:56:13;9.15;;;5.03;;
6342;SDS011;3204;42.698;23.298;2023-07-20T04:58:38;11.80;;;4.95;;
6342;SDS011;3204;42.698;23.298;2023-07-20T05:01:04;7.60;;;5.28;;
6342;SDS011;3204;42.698;23.298;2023-07-20T05:03:29;11.25;;;4.57;;
6342;SDS011;3204;42.698;23.298;2023-07-20T05:05:55;11.45;;;4.97;;
6342;SDS011;3204;42.698;23.298;2023-07-20T05:08:20;11.35;;;5.57;;
6342;SDS011;3204;42.698;23.298;2023-07-20T05:10:47;8.55;;;5.25;;
6342;SDS011;3204;42.698;23.298;2023-07-20T05:13:13;6.70;;;5.05;;
6342;SDS011;3204;42.698;23.298;2023-07-20T05:15:39;8.30;;;4.78;;
6342;SDS011;3204;42.698;23.298;2023-07-20T05:18:05;8.57;;;4.47;;
6342;SDS011;3204;42.698;23.298;2023-07-20T05:20:30;9.88;;;4.38;;
6342;SDS011;3204;42.698;23.298;2023-07-20T05:22:56;8.43;;;4.70;;
6342;SDS011;3204;42.698;23.298;2023-07-20T05:25:22;9.13;;;4.72;;
6342;SDS011;3204;42.698;23.298;2023-07-20T05:27:48;9.70;;;4.82;;
6342;SDS011;3204;42.698;23.298;2023-07-20T05:30:13;6.72;;;4.22;;
6342;SDS011;3204;42.698;23.298;2023-07-20T05:32:39;8.63;;;4.95;;
6342;SDS011;3204;42.698;23.298;2023-07-20T05:35:05;11.10;;;5.50;;
6342;SDS011;3204;42.698;23.298;2023-07-20T05:37:31;7.97;;;5.22;;
6342;SDS011;3204;42.698;23.298;2023-07-20T05:39:57;6.70;;;4.68;;
6342;SDS011;3204;42.698;23.298;2023-07-20T05:42:22;10.75;;;5.07;;
6342;SDS011;3204;42.698;23.298;2023-07-20T05:44:48;13.10;;;5.72;;
6342;SDS011;3204;42.698;23.298;2023-07-20T05:47:14;7.97;;;6.20;;
6342;SDS011;3204;42.698;23.298;2023-07-20T05:49:40;10.73;;;5.57;;
6342;SDS011;3204;42.698;23.298;2023-07-20T05:52:05;13.60;;;5.57;;
6342;SDS011;3204;42.698;23.298;2023-07-20T05:54:31;13.32;;;5.53;;
6342;SDS011;3204;42.698;23.298;2023-07-20T05:56:56;12.45;;;4.80;;
6342;SDS011;3204;42.698;23.298;2023-07-20T05:59:22;11.93;;;6.10;;
6342;SDS011;3204;42.698;23.298;2023-07-20T06:01:48;11.00;;;5.85;;
6342;SDS011;3204;42.698;23.298;2023-07-20T06:04:14;8.77;;;5.68;;
6342;SDS011;3204;42.698;23.298;2023-07-20T06:06:40;9.60;;;6.00;;
6342;SDS011;3204;42.698;23.298;2023-07-20T06:09:06;10.80;;;5.90;;
6342;SDS011;3204;42.698;23.298;2023-07-20T06:11:35;8.75;;;6.15;;
6342;SDS011;3204;42.698;23.298;2023-07-20T06:14:00;15.30;;;6.60;;
6342;SDS011;3204;42.698;23.298;2023-07-20T06:16:26;7.55;;;5.78;;
6342;SDS011;3204;42.698;23.298;2023-07-20T06:18:51;12.45;;;5.88;;
6342;SDS011;3204;42.698;23.298;2023-07-20T06:21:16;9.25;;;5.95;;
6342;SDS011;3204;42.698;23.298;2023-07-20T06:23:42;10.55;;;6.25;;
6342;SDS011;3204;42.698;23.298;2023-07-20T06:26:07;16.00;;;6.00;;
6342;SDS011;3204;42.698;23.298;2023-07-20T06:28:33;13.45;;;6.70;;
6342;SDS011;3204;42.698;23.298;2023-07-20T06:31:02;9.80;;;5.55;;
6342;SDS011;3204;42.698;23.298;2023-07-20T06:33:28;13.75;;;5.95;;
6342;SDS011;3204;42.698;23.298;2023-07-20T06:35:54;8.85;;;5.75;;
6342;SDS011;3204;42.698;23.298;2023-07-20T06:38:19;8.65;;;5.50;;
6342;SDS011;3204;42.698;23.298;2023-07-20T06:40:46;12.60;;;6.05;;
6342;SDS011;3204;42.698;23.298;2023-07-20T06:43:12;12.73;;;5.65;;
6342;SDS011;3204;42.698;23.298;2023-07-20T06:45:37;17.60;;;7.15;;
6342;SDS011;3204;42.698;23.298;2023-07-20T06:48:03;11.00;;;5.78;;
6342;SDS011;3204;42.698;23.298;2023-07-20T06:50:29;8.65;;;5.65;;
6342;SDS011;3204;42.698;23.298;2023-07-20T06:52:55;15.95;;;5.75;;
6342;SDS011;3204;42.698;23.298;2023-07-20T06:55:20;15.20;;;6.07;;
6342;SDS011;3204;42.698;23.298;2023-07-20T06:57:46;11.07;;;5.82;;
6342;SDS011;3204;42.698;23.298;2023-07-20T07:00:11;7.20;;;5.25;;
6342;SDS011;3204;42.698;23.298;2023-07-20T07:02:37;9.80;;;5.57;;
6342;SDS011;3204;42.698;23.298;2023-07-20T07:05:03;8.98;;;5.43;;
6342;SDS011;3204;42.698;23.298;2023-07-20T07:07:29;10.50;;;4.78;;
6342;SDS011;3204;42.698;23.298;2023-07-20T07:09:54;9.82;;;5.60;;
6342;SDS011;3204;42.698;23.298;2023-07-20T07:12:20;12.57;;;5.07;;
6342;SDS011;3204;42.698;23.298;2023-07-20T07:14:45;11.88;;;4.80;;
6342;SDS011;3204;42.698;23.298;2023-07-20T07:17:11;9.88;;;4.70;;
6342;SDS011;3204;42.698;23.298;2023-07-20T07:19:36;13.40;;;5.22;;
6342;SDS011;3204;42.698;23.298;2023-07-20T07:22:02;11.45;;;4.85;;
6342;SDS011;3204;42.698;23.298;2023-07-20T07:24:28;10.88;;;4.93;;
6342;SDS011;3204;42.698;23.298;2023-07-20T07:26:58;11.65;;;5.00;;
6342;SDS011;3204;42.698;23.298;2023-07-20T07:29:26;6.00;;;4.60;;
6342;SDS011;3204;42.698;23.298;2023-07-20T07:31:52;4.90;;;4.38;;
6342;SDS011;3204;42.698;23.298;2023-07-20T07:34:17;6.07;;;4.50;;
6342;SDS011;3204;42.698;23.298;2023-07-20T07:36:43;5.35;;;4.15;;
6342;SDS011;3204;42.698;23.298;2023-07-20T07:39:10;8.73;;;4.63;;
6342;SDS011;3204;42.698;23.298;2023-07-20T07:41:35;6.47;;;4.07;;
6342;SDS011;3204;42.698;23.298;2023-07-20T07:44:01;10.68;;;4.28;;
6342;SDS011;3204;42.698;23.298;2023-07-20T07:46:26;11.63;;;4.10;;
6342;SDS011;3204;42.698;23.298;2023-07-20T07:48:52;8.07;;;4.15;;
6342;SDS011;3204;42.698;23.298;2023-07-20T07:51:18;9.15;;;4.88;;
6342;SDS011;3204;42.698;23.298;2023-07-20T07:53:44;7.28;;;4.75;;
6342;SDS011;3204;42.698;23.298;2023-07-20T07:56:09;9.27;;;4.65;;
6342;SDS011;3204;42.698;23.298;2023-07-20T07:58:35;11.93;;;5.03;;
6342;SDS011;3204;42.698;23.298;2023-07-20T08:01:00;10.15;;;4.68;;
6342;SDS011;3204;42.698;23.298;2023-07-20T08:03:26;9.63;;;4.18;;
6342;SDS011;3204;42.698;23.298;2023-07-20T08:05:55;9.60;;;4.43;;
6342;SDS011;3204;42.698;23.298;2023-07-20T08:08:21;10.63;;;5.30;;
6342;SDS011;3204;42.698;23.298;2023-07-20T08:10:46;16.83;;;4.20;;
6342;SDS011;3204;42.698;23.298;2023-07-20T08:13:12;9.18;;;4.45;;
6342;SDS011;3204;42.698;23.298;2023-07-20T08:15:38;7.60;;;4.20;;
6342;SDS011;3204;42.698;23.298;2023-07-20T08:18:04;8.90;;;4.03;;
6342;SDS011;3204;42.698;23.298;2023-07-20T08:20:30;11.02;;;4.00;;
6342;SDS011;3204;42.698;23.298;2023-07-20T08:22:57;14.43;;;3.70;;
6342;SDS011;3204;42.698;23.298;2023-07-20T08:25:24;6.55;;;3.65;;
6342;SDS011;3204;42.698;23.298;2023-07-20T08:27:50;10.40;;;3.33;;
6342;SDS011;3204;42.698;23.298;2023-07-20T08:30:16;3.83;;;2.88;;
6342;SDS011;3204;42.698;23.298;2023-07-20T08:32:42;6.32;;;3.13;;
6342;SDS011;3204;42.698;23.298;2023-07-20T08:35:08;8.35;;;2.85;;
6342;SDS011;3204;42.698;23.298;2023-07-20T08:37:33;5.38;;;2.60;;
6342;SDS011;3204;42.698;23.298;2023-07-20T08:39:59;4.50;;;3.08;;
6342;SDS011;3204;42.698;23.298;2023-07-20T08:42:25;11.48;;;3.20;;
6342;SDS011;3204;42.698;23.298;2023-07-20T08:44:51;7.38;;;2.85;;
6342;SDS011;3204;42.698;23.298;2023-07-20T08:47:18;8.95;;;3.20;;
6342;SDS011;3204;42.698;23.298;2023-07-20T08:49:47;6.70;;;2.92;;
6342;SDS011;3204;42.698;23.298;2023-07-20T08:52:13;9.10;;;3.17;;
6342;SDS011;3204;42.698;23.298;2023-07-20T08:54:39;10.77;;;3.10;;
6342;SDS011;3204;42.698;23.298;2023-07-20T08:57:05;5.13;;;2.42;;
6342;SDS011;3204;42.698;23.298;2023-07-20T08:59:32;8.73;;;2.90;;
6342;SDS011;3204;42.698;23.298;2023-07-20T09:02:01;5.30;;;3.13;;
6342;SDS011;3204;42.698;23.298;2023-07-20T09:04:27;7.40;;;2.97;;
6342;SDS011;3204;42.698;23.298;2023-07-20T09:06:53;5.15;;;2.47;;
6342;SDS011;3204;42.698;23.298;2023-07-20T09:09:18;6.00;;;2.38;;
6342;SDS011;3204;42.698;23.298;2023-07-20T09:11:48;4.68;;;2.90;;
6342;SDS011;3204;42.698;23.298;2023-07-20T09:14:14;6.30;;;2.55;;
6342;SDS011;3204;42.698;23.298;2023-07-20T09:16:46;5.78;;;2.90;;
6342;SDS011;3204;42.698;23.298;2023-07-20T09:19:16;3.53;;;2.40;;
6342;SDS011;3204;42.698;23.298;2023-07-20T09:21:46;4.07;;;2.40;;
6342;SDS011;3204;42.698;23.298;2023-07-20T09:24:13;6.35;;;2.97;;
6342;SDS011;3204;42.698;23.298;2023-07-20T09:26:42;3.95;;;2.10;;
6342;SDS011;3204;42.698;23.298;2023-07-20T09:29:08;7.35;;;2.97;;
6342;SDS011;3204;42.698;23.298;2023-07-20T09:31:37;4.97;;;2.25;;
6342;SDS011;3204;42.698;23.298;2023-07-20T09:34:05;7.50;;;2.65;;
6342;SDS011;3204;42.698;23.298;2023-07-20T09:36:33;6.07;;;2.67;;
6342;SDS011;3204;42.698;23.298;2023-07-20T09:39:00;8.55;;;2.47;;
6342;SDS011;3204;42.698;23.298;2023-07-20T09:41:25;6.95;;;2.50;;
6342;SDS011;3204;42.698;23.298;2023-07-20T09:43:51;9.20;;;2.53;;
6342;SDS011;3204;42.698;23.298;2023-07-20T09:46:18;10.43;;;2.67;;
6342;SDS011;3204;42.698;23.298;2023-07-20T09:48:51;5.47;;;2.05;;
6342;SDS011;3204;42.698;23.298;2023-07-20T09:51:19;8.55;;;3.00;;
6342;SDS011;3204;42.698;23.298;2023-07-20T09:53:47;8.75;;;3.03;;
6342;SDS011;3204;42.698;23.298;2023-07-20T09:56:14;8.18;;;2.50;;
6342;SDS011;3204;42.698;23.298;2023-07-20T09:58:41;5.32;;;2.35;;
6342;SDS011;3204;42.698;23.298;2023-07-20T10:01:09;6.70;;;2.40;;
6342;SDS011;3204;42.698;23.298;2023-07-20T10:03:39;5.85;;;2.83;;
6342;SDS011;3204;42.698;23.298;2023-07-20T10:06:08;8.57;;;2.55;;
6342;SDS011;3204;42.698;23.298;2023-07-20T10:08:41;4.50;;;2.25;;
6342;SDS011;3204;42.698;23.298;2023-07-20T10:11:07;4.97;;;2.60;;
6342;SDS011;3204;42.698;23.298;2023-07-20T10:13:37;5.95;;;2.40;;
6342;SDS011;3204;42.698;23.298;2023-07-20T10:16:07;5.40;;;2.53;;
6342;SDS011;3204;42.698;23.298;2023-07-20T10:21:11;5.75;;;2.72;;
6342;SDS011;3204;42.698;23.298;2023-07-20T10:23:38;6.10;;;2.58;;
6342;SDS011;3204;42.698;23.298;2023-07-20T10:26:04;5.72;;;2.20;;
6342;SDS011;3204;42.698;23.298;2023-07-20T10:28:31;9.38;;;2.75;;
6342;SDS011;3204;42.698;23.298;2023-07-20T10:30:57;3.95;;;2.20;;
6342;SDS011;3204;42.698;23.298;2023-07-20T10:33:22;7.35;;;2.55;;
6342;SDS011;3204;42.698;23.298;2023-07-20T10:43:45;6.35;;;2.30;;
6342;SDS011;3204;42.698;23.298;2023-07-20T10:46:14;7.07;;;2.38;;
6342;SDS011;3204;42.698;23.298;2023-07-20T10:48:59;5.40;;;2.08;;
6342;SDS011;3204;42.698;23.298;2023-07-20T10:51:26;5.72;;;2.40;;
6342;SDS011;3204;42.698;23.298;2023-07-20T10:53:52;3.92;;;2.05;;
6342;SDS011;3204;42.698;23.298;2023-07-20T10:56:20;3.80;;;2.38;;
6342;SDS011;3204;42.698;23.298;2023-07-20T10:58:47;8.25;;;2.45;;
6342;SDS011;3204;42.698;23.298;2023-07-20T11:01:13;3.50;;;2.00;;
6342;SDS011;3204;42.698;23.298;2023-07-20T11:03:40;6.43;;;2.58;;
6342;SDS011;3204;42.698;23.298;2023-07-20T11:06:29;5.75;;;2.60;;
6342;SDS011;3204;42.698;23.298;2023-07-20T11:09:03;5.30;;;2.40;;
6342;SDS011;3204;42.698;23.298;2023-07-20T11:11:32;4.18;;;2.20;;
6342;SDS011;3204;42.698;23.298;2023-07-20T11:14:00;3.63;;;2.45;;
6342;SDS011;3204;42.698;23.298;2023-07-20T11:16:37;8.40;;;2.42;;
6342;SDS011;3204;42.698;23.298;2023-07-20T11:19:14;2.88;;;2.67;;
6342;SDS011;3204;42.698;23.298;2023-07-20T11:21:44;7.35;;;2.63;;
6342;SDS011;3204;42.698;23.298;2023-07-20T11:24:11;8.48;;;6.03;;
6342;SDS011;3204;42.698;23.298;2023-07-20T11:26:44;5.32;;;2.78;;
6342;SDS011;3204;42.698;23.298;2023-07-20T11:29:11;6.38;;;3.40;;
6342;SDS011;3204;42.698;23.298;2023-07-20T11:31:37;4.35;;;2.58;;
6342;SDS011;3204;42.698;23.298;2023-07-20T11:34:04;4.78;;;2.80;;
6342;SDS011;3204;42.698;23.298;2023-07-20T11:36:29;4.75;;;3.08;;
6342;SDS011;3204;42.698;23.298;2023-07-20T11:38:55;3.20;;;2.90;;
6342;SDS011;3204;42.698;23.298;2023-07-20T11:41:21;4.63;;;2.65;;
6342;SDS011;3204;42.698;23.298;2023-07-20T11:43:46;7.30;;;3.05;;
6342;SDS011;3204;42.698;23.298;2023-07-20T11:46:12;4.32;;;3.00;;
6342;SDS011;3204;42.698;23.298;2023-07-20T11:48:38;8.43;;;3.60;;
6342;SDS011;3204;42.698;23.298;2023-07-20T11:51:05;7.82;;;3.30;;
6342;SDS011;3204;42.698;23.298;2023-07-20T11:53:30;4.57;;;3.28;;
6342;SDS011;3204;42.698;23.298;2023-07-20T11:55:58;4.32;;;3.30;;
6342;SDS011;3204;42.698;23.298;2023-07-20T11:58:24;7.90;;;3.50;;
6342;SDS011;3204;42.698;23.298;2023-07-20T12:00:49;5.00;;;3.67;;
6342;SDS011;3204;42.698;23.298;2023-07-20T12:03:15;8.88;;;3.72;;
6342;SDS011;3204;42.698;23.298;2023-07-20T12:05:40;4.72;;;3.80;;
6342;SDS011;3204;42.698;23.298;2023-07-20T12:08:06;4.28;;;3.42;;
6342;SDS011;3204;42.698;23.298;2023-07-20T12:10:32;6.07;;;3.30;;
6342;SDS011;3204;42.698;23.298;2023-07-20T12:13:01;4.47;;;3.25;;
6342;SDS011;3204;42.698;23.298;2023-07-20T12:15:30;6.28;;;2.88;;
6342;SDS011;3204;42.698;23.298;2023-07-20T12:17:57;3.60;;;3.05;;
6342;SDS011;3204;42.698;23.298;2023-07-20T12:20:28;4.30;;;2.90;;
6342;SDS011;3204;42.698;23.298;2023-07-20T12:23:02;8.23;;;2.97;;
6342;SDS011;3204;42.698;23.298;2023-07-20T12:25:34;5.55;;;3.00;;
6342;SDS011;3204;42.698;23.298;2023-07-20T12:28:04;6.65;;;2.92;;
6342;SDS011;3204;42.698;23.298;2023-07-20T12:30:41;7.07;;;2.65;;
6342;SDS011;3204;42.698;23.298;2023-07-20T12:33:07;6.47;;;2.78;;
6342;SDS011;3204;42.698;23.298;2023-07-20T12:35:32;3.85;;;2.70;;
6342;SDS011;3204;42.698;23.298;2023-07-20T12:37:58;5.68;;;3.00;;
6342;SDS011;3204;42.698;23.298;2023-07-20T12:40:24;3.88;;;2.60;;
6342;SDS011;3204;42.698;23.298;2023-07-20T12:42:50;8.20;;;3.33;;
6342;SDS011;3204;42.698;23.298;2023-07-20T12:45:16;6.75;;;2.80;;
6342;SDS011;3204;42.698;23.298;2023-07-20T12:47:41;6.32;;;2.55;;
6342;SDS011;3204;42.698;23.298;2023-07-20T12:50:09;4.75;;;2.83;;
6342;SDS011;3204;42.698;23.298;2023-07-20T12:52:38;6.40;;;3.08;;
6342;SDS011;3204;42.698;23.298;2023-07-20T12:55:05;10.13;;;3.33;;
6342;SDS011;3204;42.698;23.298;2023-07-20T12:57:35;4.32;;;2.60;;
6342;SDS011;3204;42.698;23.298;2023-07-20T13:00:02;7.68;;;2.90;;
6342;SDS011;3204;42.698;23.298;2023-07-20T13:02:30;6.68;;;2.95;;
6342;SDS011;3204;42.698;23.298;2023-07-20T13:04:57;6.15;;;2.75;;
6342;SDS011;3204;42.698;23.298;2023-07-20T13:07:44;6.55;;;2.70;;
6342;SDS011;3204;42.698;23.298;2023-07-20T13:10:09;3.75;;;2.65;;
6342;SDS011;3204;42.698;23.298;2023-07-20T13:12:36;3.35;;;2.72;;
6342;SDS011;3204;42.698;23.298;2023-07-20T13:15:03;4.65;;;2.38;;
6342;SDS011;3204;42.698;23.298;2023-07-20T13:17:31;4.93;;;2.72;;
6342;SDS011;3204;42.698;23.298;2023-07-20T13:19:57;5.55;;;3.10;;
6342;SDS011;3204;42.698;23.298;2023-07-20T13:22:23;7.53;;;3.22;;
6342;SDS011;3204;42.698;23.298;2023-07-20T13:24:48;4.28;;;2.95;;
6342;SDS011;3204;42.698;23.298;2023-07-20T13:27:14;7.65;;;2.75;;
6342;SDS011;3204;42.698;23.298;2023-07-20T13:29:40;5.75;;;2.58;;
6342;SDS011;3204;42.698;23.298;2023-07-20T13:32:06;8.35;;;2.88;;
6342;SDS011;3204;42.698;23.298;2023-07-20T13:34:32;7.82;;;2.70;;
6342;SDS011;3204;42.698;23.298;2023-07-20T13:36:58;3.97;;;2.65;;
6342;SDS011;3204;42.698;23.298;2023-07-20T13:39:24;7.88;;;2.50;;
6342;SDS011;3204;42.698;23.298;2023-07-20T13:41:51;8.38;;;2.78;;
6342;SDS011;3204;42.698;23.298;2023-07-20T13:44:17;7.85;;;2.75;;
6342;SDS011;3204;42.698;23.298;2023-07-20T13:46:43;6.65;;;2.85;;
6342;SDS011;3204;42.698;23.298;2023-07-20T13:49:08;8.52;;;3.17;;
6342;SDS011;3204;42.698;23.298;2023-07-20T13:51:34;8.52;;;2.88;;
6342;SDS011;3204;42.698;23.298;2023-07-20T13:53:59;6.97;;;2.47;;
6342;SDS011;3204;42.698;23.298;2023-07-20T13:56:25;6.40;;;3.17;;
6342;SDS011;3204;42.698;23.298;2023-07-20T13:58:52;9.52;;;2.45;;
6342;SDS011;3204;42.698;23.298;2023-07-20T14:01:17;8.07;;;3.00;;
6342;SDS011;3204;42.698;23.298;2023-07-20T14:03:43;4.10;;;2.75;;
6342;SDS011;3204;42.698;23.298;2023-07-20T14:06:09;5.38;;;2.58;;
6342;SDS011;3204;42.698;23.298;2023-07-20T14:08:34;3.45;;;2.20;;
6342;SDS011;3204;42.698;23.298;2023-07-20T14:11:00;3.38;;;2.50;;
6342;SDS011;3204;42.698;23.298;2023-07-20T14:13:25;5.68;;;2.17;;
6342;SDS011;3204;42.698;23.298;2023-07-20T14:15:51;6.35;;;2.53;;
6342;SDS011;3204;42.698;23.298;2023-07-20T14:18:16;4.05;;;2.20;;
6342;SDS011;3204;42.698;23.298;2023-07-20T14:20:42;4.53;;;2.20;;
6342;SDS011;3204;42.698;23.298;2023-07-20T14:23:09;7.85;;;3.05;;
6342;SDS011;3204;42.698;23.298;2023-07-20T14:25:34;9.45;;;2.58;;
6342;SDS011;3204;42.698;23.298;2023-07-20T14:28:00;8.60;;;2.70;;
6342;SDS011;3204;42.698;23.298;2023-07-20T14:30:25;6.38;;;2.97;;
6342;SDS011;3204;42.698;23.298;2023-07-20T14:32:51;4.75;;;2.80;;
6342;SDS011;3204;42.698;23.298;2023-07-20T14:35:17;3.97;;;2.45;;
6342;SDS011;3204;42.698;23.298;2023-07-20T14:37:42;5.35;;;2.80;;
6342;SDS011;3204;42.698;23.298;2023-07-20T14:40:11;6.78;;;2.78;;
6342;SDS011;3204;42.698;23.298;2023-07-20T14:42:38;4.88;;;2.30;;
6342;SDS011;3204;42.698;23.298;2023-07-20T14:45:04;4.80;;;2.55;;
6342;SDS011;3204;42.698;23.298;2023-07-20T14:47:30;6.05;;;2.88;;
6342;SDS011;3204;42.698;23.298;2023-07-20T14:49:57;8.15;;;2.58;;
6342;SDS011;3204;42.698;23.298;2023-07-20T14:52:23;6.22;;;3.08;;
6342;SDS011;3204;42.698;23.298;2023-07-20T14:54:48;4.50;;;2.78;;
6342;SDS011;3204;42.698;23.298;2023-07-20T14:57:14;4.93;;;2.47;;
6342;SDS011;3204;42.698;23.298;2023-07-20T14:59:40;2.90;;;2.60;;
6342;SDS011;3204;42.698;23.298;2023-07-20T15:02:09;5.80;;;2.40;;
6342;SDS011;3204;42.698;23.298;2023-07-20T15:04:34;5.97;;;2.50;;
6342;SDS011;3204;42.698;23.298;2023-07-20T15:07:00;5.35;;;2.40;;
6342;SDS011;3204;42.698;23.298;2023-07-20T15:09:25;5.40;;;2.58;;
6342;SDS011;3204;42.698;23.298;2023-07-20T15:11:50;4.78;;;2.50;;
6342;SDS011;3204;42.698;23.298;2023-07-20T15:14:16;5.53;;;2.50;;
6342;SDS011;3204;42.698;23.298;2023-07-20T15:16:42;6.97;;;2.83;;